createdAt,value
2022-08-14T00:01:02.919Z,22.60
2022-08-14T00:03:37.788Z,22.46
2022-08-14T00:06:13.863Z,22.45
2022-08-14T00:08:51.415Z,22.40
2022-08-14T00:11:18.905Z,22.36
2022-08-14T00:13:52.824Z,22.29
2022-08-14T00:16:41.380Z,22.32
2022-08-14T00:19:19.121Z,22.26
2022-08-14T00:21:50.345Z,22.02
2022-08-14T00:24:28.402Z,22.08
2022-08-14T00:26:57.705Z,22.17
2022-08-14T00:29:30.701Z,22.09
2022-08-14T00:31:59.159Z,22.09
2022-08-14T00:34:37.688Z,22.11
2022-08-14T00:37:11.250Z,22.28
2022-08-14T00:39:38.839Z,22.34
2022-08-14T00:42:06.984Z,22.19
2022-08-14T00:44:48.057Z,22.30
2022-08-14T00:47:15.435Z,22.28
2022-08-14T00:49:43.119Z,22.31
2022-08-14T00:52:18.294Z,22.31
2022-08-14T00:54:46.552Z,22.17
2022-08-14T00:57:13.063Z,22.22
2022-08-14T00:59:40.580Z,22.24
2022-08-14T01:02:09.213Z,22.23
2022-08-14T01:04:51.417Z,22.05
2022-08-14T01:07:22.301Z,22.05
2022-08-14T01:09:57.953Z,22.26
2022-08-14T01:12:26.979Z,22.15
2022-08-14T01:14:59.928Z,21.97
2022-08-14T01:17:50.776Z,21.71
2022-08-14T01:20:39.640Z,21.73
2022-08-14T01:23:16.396Z,21.85
2022-08-14T01:25:47.545Z,21.86
2022-08-14T01:28:34.349Z,21.67
2022-08-14T01:31:00.542Z,21.79
2022-08-14T01:33:29.293Z,21.75
2022-08-14T01:36:04.579Z,21.53
2022-08-14T01:38:37.127Z,21.81
2022-08-14T01:41:14.824Z,21.68
2022-08-14T01:43:56.296Z,21.59
2022-08-14T01:46:24.843Z,21.84
2022-08-14T01:48:51.700Z,21.87
2022-08-14T01:51:22.185Z,21.95
2022-08-14T01:53:54.881Z,21.84
2022-08-14T01:56:32.673Z,21.64
2022-08-14T01:59:19.898Z,21.50
2022-08-14T02:01:59.111Z,21.59
2022-08-14T02:04:54.448Z,21.40
2022-08-14T02:07:34.554Z,21.40
2022-08-14T02:10:07.274Z,21.11
2022-08-14T02:12:33.372Z,21.44
2022-08-14T02:15:01.697Z,21.31
2022-08-14T02:17:28.867Z,21.31
2022-08-14T02:19:56.615Z,21.24
2022-08-14T02:22:28.662Z,21.15
2022-08-14T02:24:58.949Z,21.11
2022-08-14T02:28:25.655Z,21.01
2022-08-14T02:30:11.564Z,21.04
2022-08-14T02:32:39.755Z,21.27
2022-08-14T02:35:14.941Z,21.14
2022-08-14T02:37:48.228Z,21.16
2022-08-14T02:40:17.596Z,21.38
2022-08-14T02:42:55.203Z,21.33
2022-08-14T02:45:25.508Z,21.34
2022-08-14T02:48:10.375Z,21.41
2022-08-14T02:50:53.630Z,21.01
2022-08-14T02:53:19.609Z,21.00
2022-08-14T02:55:46.274Z,20.98
2022-08-14T02:58:12.503Z,20.88
2022-08-14T03:00:57.452Z,20.74
2022-08-14T03:03:24.067Z,20.80
2022-08-14T03:05:51.809Z,20.81
2022-08-14T03:08:20.957Z,20.70
2022-08-14T03:10:48.686Z,20.90
2022-08-14T03:13:20.975Z,20.76
2022-08-14T03:15:56.002Z,20.75
2022-08-14T03:18:31.865Z,20.63
2022-08-14T03:21:10.486Z,20.78
2022-08-14T03:23:37.976Z,20.77
2022-08-14T03:26:07.701Z,20.64
2022-08-14T03:28:33.777Z,20.85
2022-08-14T03:31:00.933Z,20.81
2022-08-14T03:33:28.298Z,20.83
2022-08-14T03:37:29.695Z,20.91
2022-08-14T03:39:15.820Z,20.92
2022-08-14T03:41:41.291Z,20.97
2022-08-14T03:45:25.748Z,20.95
2022-08-14T03:46:56.085Z,20.83
2022-08-14T03:49:24.334Z,20.84
2022-08-14T03:51:54.852Z,20.83
2022-08-14T03:54:20.804Z,20.66
2022-08-14T03:56:46.890Z,20.61
2022-08-14T03:59:17.661Z,20.34
2022-08-14T04:01:57.954Z,20.48
2022-08-14T04:04:29.185Z,20.50
2022-08-14T04:06:59.006Z,20.33
2022-08-14T04:09:26.683Z,20.39
2022-08-14T04:11:53.489Z,20.37
2022-08-14T04:14:19.561Z,20.31
2022-08-14T04:16:47.341Z,20.23
2022-08-14T04:19:16.648Z,20.28
2022-08-14T04:22:01.867Z,20.12
2022-08-14T04:24:28.597Z,20.09
2022-08-14T04:26:55.670Z,20.14
2022-08-14T04:29:21.516Z,20.25
2022-08-14T04:33:10.489Z,20.26
2022-08-14T04:34:34.455Z,20.22
2022-08-14T04:37:24.962Z,20.28
2022-08-14T04:40:11.958Z,20.35
2022-08-14T04:42:56.581Z,20.15
2022-08-14T04:45:23.725Z,20.29
2022-08-14T04:48:10.144Z,20.35
2022-08-14T04:50:44.058Z,20.23
2022-08-14T04:53:14.898Z,20.36
2022-08-14T04:55:44.299Z,20.38
2022-08-14T04:58:21.662Z,20.47
2022-08-14T05:00:58.697Z,20.43
2022-08-14T05:03:27.772Z,20.45
2022-08-14T05:05:57.895Z,20.54
2022-08-14T05:08:32.414Z,20.74
2022-08-14T05:11:11.974Z,20.78
2022-08-14T05:14:17.198Z,20.71
2022-08-14T05:16:28.556Z,20.65
2022-08-14T05:19:19.020Z,20.71
2022-08-14T05:22:00.376Z,20.85
2022-08-14T05:24:27.677Z,20.90
2022-08-14T05:26:53.749Z,20.93
2022-08-14T05:29:19.891Z,21.02
2022-08-14T05:31:45.829Z,21.15
2022-08-14T05:34:11.809Z,21.31
2022-08-14T05:36:37.816Z,21.49
2022-08-14T05:39:05.735Z,21.61
2022-08-14T05:41:53.577Z,21.45
2022-08-14T05:44:20.197Z,21.44
2022-08-14T05:46:46.031Z,21.50
2022-08-14T05:49:13.608Z,21.60
2022-08-14T05:51:40.462Z,21.68
2022-08-14T05:54:12.689Z,21.69
2022-08-14T05:56:39.952Z,21.73
2022-08-14T05:59:05.898Z,21.75
2022-08-14T06:01:33.684Z,21.74
2022-08-14T06:03:59.821Z,21.84
2022-08-14T06:06:26.192Z,21.70
2022-08-14T06:08:52.116Z,21.77
2022-08-14T06:11:23.934Z,21.85
2022-08-14T06:13:56.740Z,22.00
2022-08-14T06:16:22.731Z,21.92
2022-08-14T06:18:52.323Z,21.91
2022-08-14T06:21:20.535Z,21.70
2022-08-14T06:23:48.979Z,21.84
2022-08-14T06:26:15.063Z,21.91
2022-08-14T06:28:45.573Z,21.80
2022-08-14T06:31:11.601Z,22.04
2022-08-14T06:35:01.478Z,21.98
2022-08-14T06:36:23.999Z,22.00
2022-08-14T06:38:53.514Z,22.06
2022-08-14T06:41:20.715Z,21.98
2022-08-14T06:43:57.516Z,22.17
2022-08-14T06:46:34.244Z,22.33
2022-08-14T06:49:02.840Z,22.35
2022-08-14T06:51:38.518Z,22.39
2022-08-14T06:54:10.227Z,22.45
2022-08-14T06:56:36.130Z,22.56
2022-08-14T06:59:05.383Z,22.77
2022-08-14T07:01:50.822Z,22.65
2022-08-14T07:04:40.936Z,22.66
2022-08-14T07:07:06.820Z,22.60
2022-08-14T07:09:44.276Z,22.68
2022-08-14T07:12:54.088Z,22.84
2022-08-14T07:15:05.109Z,22.78
2022-08-14T07:17:32.149Z,22.76
2022-08-14T07:20:00.297Z,22.83
2022-08-14T07:22:33.099Z,22.78
2022-08-14T07:25:12.821Z,22.74
2022-08-14T07:27:40.764Z,22.56
2022-08-14T07:30:09.691Z,22.83
2022-08-14T07:32:55.542Z,22.78
2022-08-14T07:35:21.427Z,22.73
2022-08-14T07:37:49.510Z,22.94
2022-08-14T07:40:22.196Z,22.82
2022-08-14T07:42:53.796Z,22.93
2022-08-14T07:45:19.782Z,22.88
2022-08-14T07:47:48.487Z,22.97
2022-08-14T07:50:20.059Z,23.00
2022-08-14T07:52:47.568Z,22.98
2022-08-14T07:55:14.781Z,23.05
2022-08-14T07:57:47.647Z,22.96
2022-08-14T08:00:30.191Z,23.06
2022-08-14T08:03:00.269Z,23.08
2022-08-14T08:05:27.220Z,23.23
2022-08-14T08:07:53.917Z,23.57
2022-08-14T08:10:46.060Z,23.85
2022-08-14T08:13:16.735Z,23.91
2022-08-14T08:15:48.376Z,23.64
2022-08-14T08:18:20.533Z,23.63
2022-08-14T08:20:56.172Z,23.99
2022-08-14T08:23:40.054Z,24.33
2022-08-14T08:26:09.389Z,24.39
2022-08-14T08:28:35.458Z,24.30
2022-08-14T08:31:06.061Z,24.32
2022-08-14T08:33:37.611Z,24.46
2022-08-14T08:36:12.785Z,24.57
2022-08-14T08:39:17.791Z,24.45
2022-08-14T08:41:25.675Z,24.43
2022-08-14T08:43:53.236Z,24.39
2022-08-14T08:46:21.334Z,24.35
2022-08-14T08:51:33.419Z,24.44
2022-08-14T08:54:18.348Z,24.67
2022-08-14T08:56:49.525Z,24.55
2022-08-14T08:59:31.267Z,24.56
2022-08-14T09:02:10.177Z,24.50
2022-08-14T09:04:52.862Z,24.64
2022-08-14T09:07:25.092Z,24.65
2022-08-14T09:09:59.060Z,24.43
2022-08-14T09:12:31.494Z,24.66
2022-08-14T09:15:08.948Z,25.06
2022-08-14T09:17:38.866Z,24.95
2022-08-14T09:20:07.835Z,25.00
2022-08-14T09:22:44.957Z,25.16
2022-08-14T09:25:15.514Z,25.25
2022-08-14T09:27:41.518Z,25.34
2022-08-14T09:30:12.910Z,25.47
2022-08-14T09:33:06.033Z,25.61
2022-08-14T09:35:56.551Z,25.65
2022-08-14T09:38:46.820Z,25.81
2022-08-14T09:42:17.684Z,25.97
2022-08-14T09:44:38.355Z,25.87
2022-08-14T09:47:04.420Z,25.83
2022-08-14T09:49:34.301Z,25.71
2022-08-14T09:52:32.589Z,25.50
2022-08-14T09:54:59.497Z,25.82
2022-08-14T09:57:30.483Z,25.98
2022-08-14T09:59:57.641Z,26.19
2022-08-14T10:02:30.374Z,26.52
2022-08-14T10:05:10.714Z,26.80
2022-08-14T10:07:50.305Z,26.84
2022-08-14T10:10:38.043Z,27.29
2022-08-14T10:13:07.437Z,27.65
2022-08-14T10:15:45.191Z,27.56
2022-08-14T10:18:18.270Z,27.61
2022-08-14T10:20:56.856Z,27.43
2022-08-14T10:23:26.179Z,27.25
2022-08-14T10:26:22.830Z,27.88
2022-08-14T10:29:18.873Z,28.02
2022-08-14T10:31:45.044Z,28.32
2022-08-14T10:34:14.102Z,28.52
2022-08-14T10:36:50.219Z,28.92
2022-08-14T10:47:41.210Z,27.96
2022-08-14T10:50:00.529Z,27.51
2022-08-14T10:52:31.105Z,27.63
2022-08-14T10:55:08.842Z,28.43
2022-08-14T10:57:56.801Z,29.09
2022-08-14T11:00:29.813Z,29.32
2022-08-14T11:03:08.806Z,29.50
2022-08-14T11:05:48.710Z,28.85
2022-08-14T11:08:31.400Z,28.95
2022-08-14T11:11:00.842Z,29.62
2022-08-14T11:13:30.036Z,29.88
2022-08-14T11:16:01.373Z,29.18
2022-08-14T11:18:32.252Z,28.56
2022-08-14T11:21:06.169Z,28.69
2022-08-14T11:23:39.789Z,29.65
2022-08-14T11:26:08.164Z,30.62
2022-08-14T11:28:48.062Z,30.95
2022-08-14T11:31:19.109Z,30.59
2022-08-14T11:33:57.203Z,30.18
2022-08-14T11:36:35.340Z,29.83
2022-08-14T11:39:22.862Z,30.57
2022-08-14T11:41:59.660Z,31.06
2022-08-14T11:44:45.624Z,30.87
2022-08-14T11:47:18.797Z,30.41
2022-08-14T11:49:48.971Z,29.59
2022-08-14T11:52:18.637Z,30.18
2022-08-14T11:54:46.176Z,30.04
2022-08-14T11:57:18.774Z,29.64
2022-08-14T11:59:45.319Z,29.10
2022-08-14T12:03:00.706Z,28.82
2022-08-14T12:05:04.067Z,28.69
2022-08-14T12:07:30.655Z,28.69
2022-08-14T12:09:58.639Z,29.05
2022-08-14T12:12:35.772Z,29.56
2022-08-14T12:15:04.743Z,29.96
2022-08-14T12:17:47.460Z,30.00
2022-08-14T12:20:15.787Z,30.04
2022-08-14T12:22:56.660Z,30.32
2022-08-14T12:25:24.991Z,30.55
2022-08-14T12:27:54.540Z,31.13
2022-08-14T12:30:43.259Z,31.48
2022-08-14T12:33:25.615Z,32.33
2022-08-14T12:35:56.429Z,32.56
2022-08-14T12:38:40.858Z,31.39
2022-08-14T12:41:20.454Z,30.88
2022-08-14T12:43:56.650Z,31.39
2022-08-14T12:46:46.699Z,31.90
2022-08-14T12:49:17.982Z,32.52
2022-08-14T12:51:56.097Z,32.22
2022-08-14T12:54:28.141Z,32.23
2022-08-14T12:57:19.323Z,32.55
2022-08-14T12:59:46.895Z,32.87
2022-08-14T13:02:26.028Z,32.44
2022-08-14T13:04:54.840Z,32.50
2022-08-14T13:07:21.148Z,32.97
2022-08-14T13:09:53.614Z,32.91
2022-08-14T13:12:32.632Z,33.24
2022-08-14T13:15:02.335Z,32.89
2022-08-14T13:17:51.417Z,32.49
2022-08-14T13:20:23.518Z,32.39
2022-08-14T13:22:54.226Z,32.72
2022-08-14T13:25:24.520Z,33.32
2022-08-14T13:27:54.570Z,33.28
2022-08-14T13:30:24.330Z,33.16
2022-08-14T13:32:54.650Z,33.07
2022-08-14T13:35:24.556Z,32.02
2022-08-14T13:37:52.208Z,31.69
2022-08-14T13:40:22.034Z,31.61
2022-08-14T13:42:54.552Z,31.57
2022-08-14T13:45:22.487Z,31.56
2022-08-14T13:47:49.424Z,31.40
2022-08-14T13:50:20.705Z,31.12
2022-08-14T13:52:54.810Z,30.72
2022-08-14T13:55:24.136Z,30.48
2022-08-14T13:58:02.907Z,30.16
2022-08-14T14:00:51.572Z,30.01
2022-08-14T14:03:21.749Z,30.08
2022-08-14T14:05:54.401Z,30.03
2022-08-14T14:08:45.775Z,29.96
2022-08-14T14:11:09.186Z,29.98
2022-08-14T14:13:36.270Z,30.24
2022-08-14T14:16:03.970Z,30.26
2022-08-14T14:18:34.708Z,30.00
2022-08-14T14:21:02.788Z,29.77
2022-08-14T14:23:30.422Z,30.00
2022-08-14T14:25:59.002Z,30.62
2022-08-14T14:28:33.394Z,30.91
2022-08-14T14:31:06.706Z,30.74
2022-08-14T14:33:50.115Z,30.29
2022-08-14T14:36:24.260Z,29.98
2022-08-14T14:38:55.997Z,29.94
2022-08-14T14:41:24.091Z,30.02
2022-08-14T14:43:51.582Z,30.10
2022-08-14T14:46:19.691Z,30.08
2022-08-14T14:48:46.587Z,29.87
2022-08-14T14:51:20.945Z,29.93
2022-08-14T14:53:47.023Z,30.56
2022-08-14T14:56:50.220Z,30.62
2022-08-14T14:58:59.460Z,30.55
2022-08-14T15:01:26.842Z,30.29
2022-08-14T15:03:53.913Z,30.20
2022-08-14T15:06:21.946Z,29.99
2022-08-14T15:08:59.819Z,29.84
2022-08-14T15:11:26.605Z,29.67
2022-08-14T15:13:56.874Z,29.44
2022-08-14T15:16:22.936Z,29.32
2022-08-14T15:18:50.812Z,29.21
2022-08-14T15:21:19.285Z,29.23
2022-08-14T15:23:47.298Z,29.38
2022-08-14T15:26:24.056Z,29.49
2022-08-14T15:29:03.183Z,29.75
2022-08-14T15:31:31.933Z,29.52
2022-08-14T15:34:45.605Z,29.53
2022-08-14T15:37:01.441Z,29.89
2022-08-14T15:39:29.523Z,30.42
2022-08-14T15:42:01.174Z,30.70
2022-08-14T15:44:33.988Z,30.68
2022-08-14T15:47:06.152Z,30.61
2022-08-14T15:49:34.833Z,30.78
2022-08-14T15:52:03.992Z,30.99
2022-08-14T15:54:31.219Z,30.81
2022-08-14T15:57:08.574Z,30.89
2022-08-14T15:59:54.445Z,31.42
2022-08-14T16:02:24.462Z,31.76
2022-08-14T16:04:53.699Z,31.93
2022-08-14T16:07:22.042Z,31.33
2022-08-14T16:10:11.897Z,31.43
2022-08-14T16:12:41.868Z,31.30
2022-08-14T16:15:12.695Z,31.23
2022-08-14T16:17:44.119Z,30.82
2022-08-14T16:20:11.761Z,30.95
2022-08-14T16:22:57.705Z,31.12
2022-08-14T16:25:34.594Z,31.05
2022-08-14T16:28:02.773Z,31.29
2022-08-14T16:30:33.545Z,31.40
2022-08-14T16:33:04.019Z,31.08
2022-08-14T16:35:42.801Z,31.12
2022-08-14T16:38:46.062Z,30.72
2022-08-14T16:41:22.263Z,30.61
2022-08-14T16:43:52.379Z,30.96
2022-08-14T16:46:22.086Z,31.16
2022-08-14T16:48:54.972Z,31.40
2022-08-14T16:51:23.824Z,31.26
2022-08-14T16:53:49.768Z,31.17
2022-08-14T16:56:25.383Z,31.01
2022-08-14T16:59:15.290Z,30.94
2022-08-14T17:01:58.499Z,30.76
2022-08-14T17:04:29.659Z,30.72
2022-08-14T17:06:58.432Z,30.69
2022-08-14T17:09:32.317Z,30.88
2022-08-14T17:12:00.112Z,30.81
2022-08-14T17:15:19.830Z,30.75
2022-08-14T17:17:49.872Z,30.75
2022-08-14T17:20:53.294Z,30.43
2022-08-14T17:23:10.761Z,30.23
2022-08-14T17:25:37.799Z,29.84
2022-08-14T17:28:52.274Z,29.48
2022-08-14T17:31:02.724Z,29.03
2022-08-14T17:36:22.746Z,28.83
2022-08-14T17:39:11.951Z,28.84
2022-08-14T17:42:02.969Z,28.97
2022-08-14T17:44:34.144Z,28.85
2022-08-14T17:47:13.000Z,28.63
2022-08-14T17:49:52.183Z,28.55
2022-08-14T17:52:34.433Z,28.44
2022-08-14T17:55:05.228Z,28.40
2022-08-14T17:57:35.534Z,28.16
2022-08-14T18:00:13.038Z,28.08
2022-08-14T18:02:50.402Z,28.20
2022-08-14T18:05:17.538Z,28.01
2022-08-14T18:08:33.227Z,27.92
2022-08-14T18:10:54.968Z,27.86
2022-08-14T18:13:52.082Z,27.62
2022-08-14T18:16:19.758Z,27.49
2022-08-14T18:18:48.204Z,27.56
2022-08-14T18:21:39.924Z,27.38
2022-08-14T18:24:00.595Z,27.19
2022-08-14T18:26:36.826Z,27.07
2022-08-14T18:29:15.050Z,27.11
2022-08-14T18:31:43.510Z,26.99
2022-08-14T18:34:13.764Z,26.84
2022-08-14T18:37:09.469Z,26.87
2022-08-14T18:40:03.611Z,26.82
2022-08-14T18:42:33.204Z,26.52
2022-08-14T18:45:01.308Z,26.57
2022-08-14T18:47:28.798Z,26.58
2022-08-14T18:50:26.819Z,26.42
2022-08-14T18:52:53.140Z,26.35
2022-08-14T18:55:20.844Z,26.31
2022-08-14T18:58:24.504Z,26.21
2022-08-14T19:00:54.344Z,26.21
2022-08-14T19:03:36.534Z,26.20
2022-08-14T19:06:05.551Z,26.06
2022-08-14T19:08:39.772Z,26.02
2022-08-14T19:11:39.097Z,25.90
2022-08-14T19:14:07.200Z,25.93
2022-08-14T19:16:36.116Z,25.83
2022-08-14T19:19:06.081Z,25.83
2022-08-14T19:21:42.884Z,25.73
2022-08-14T19:24:29.184Z,25.72
2022-08-14T19:27:23.665Z,25.65
2022-08-14T19:29:51.698Z,25.68
2022-08-14T19:32:38.389Z,25.67
2022-08-14T19:35:14.974Z,25.52
2022-08-14T19:37:46.739Z,25.53
2022-08-14T19:40:39.211Z,25.54
2022-08-14T19:43:08.959Z,25.52
2022-08-14T19:45:37.195Z,25.35
2022-08-14T19:48:11.684Z,25.32
2022-08-14T19:50:41.236Z,25.30
2022-08-14T19:53:17.510Z,25.35
2022-08-14T19:55:56.691Z,25.23
2022-08-14T19:58:30.012Z,25.25
2022-08-14T20:00:56.377Z,25.15
2022-08-14T20:03:24.606Z,25.00
2022-08-14T20:06:02.469Z,24.98
2022-08-14T20:11:00.995Z,24.90
2022-08-14T20:11:43.412Z,24.87
2022-08-14T20:14:20.867Z,24.88
2022-08-14T20:16:54.743Z,24.98
2022-08-14T20:19:28.839Z,24.96
2022-08-14T20:22:34.644Z,24.94
2022-08-14T20:24:50.004Z,24.95
2022-08-14T20:27:37.660Z,25.01
2022-08-14T20:30:28.801Z,24.94
2022-08-14T20:32:56.510Z,24.96
2022-08-14T20:35:26.758Z,24.94
2022-08-14T20:38:30.715Z,24.88
2022-08-14T20:40:56.257Z,24.82
2022-08-14T20:43:42.008Z,24.81
2022-08-14T20:46:24.095Z,24.74
2022-08-14T20:48:59.944Z,24.82
2022-08-14T20:51:59.370Z,24.68
2022-08-14T20:54:33.979Z,24.68
2022-08-14T20:57:10.748Z,24.58
2022-08-14T20:59:43.496Z,24.44
2022-08-14T21:02:30.459Z,24.45
2022-08-14T21:05:16.372Z,24.61
2022-08-14T21:07:44.565Z,24.63
2022-08-14T21:10:33.011Z,24.49
2022-08-14T21:14:18.689Z,24.52
2022-08-14T21:15:57.345Z,24.54
2022-08-14T21:18:47.387Z,24.45
2022-08-14T21:21:17.710Z,24.34
2022-08-14T21:23:55.324Z,24.40
2022-08-14T21:26:50.521Z,24.44
2022-08-14T21:29:11.282Z,24.56
2022-08-14T21:31:39.411Z,24.54
2022-08-14T21:34:31.588Z,24.44
2022-08-14T21:36:53.764Z,24.53
2022-08-14T21:39:21.515Z,24.65
2022-08-14T21:41:59.002Z,24.55
2022-08-14T21:44:42.637Z,24.51
2022-08-14T21:47:11.574Z,24.60
2022-08-14T21:49:40.162Z,24.60
2022-08-14T21:52:51.987Z,24.67
2022-08-14T21:55:09.243Z,24.55
2022-08-14T21:58:05.475Z,24.62
2022-08-14T22:00:34.679Z,24.46
2022-08-14T22:03:02.644Z,24.47
2022-08-14T22:05:29.417Z,24.50
2022-08-14T22:07:55.998Z,24.32
2022-08-14T22:10:22.762Z,24.41
2022-08-14T22:13:00.976Z,24.32
2022-08-14T22:15:28.220Z,24.22
2022-08-14T22:17:54.926Z,24.13
2022-08-14T22:20:22.113Z,24.16
2022-08-14T22:22:48.639Z,24.09
2022-08-14T22:25:22.109Z,24.20
2022-08-14T22:28:00.713Z,24.16
2022-08-14T22:30:26.764Z,24.21
2022-08-14T22:32:57.338Z,24.24
2022-08-14T22:35:25.010Z,24.11
2022-08-14T22:38:36.125Z,24.05
2022-08-14T22:41:01.807Z,24.01
2022-08-14T22:43:26.842Z,23.89
2022-08-14T22:45:55.496Z,23.72
2022-08-14T22:48:22.053Z,23.78
2022-08-14T22:50:53.329Z,23.81
2022-08-14T22:53:20.856Z,23.72
2022-08-14T22:55:47.750Z,23.75
2022-08-14T22:58:31.349Z,23.65
2022-08-14T23:01:00.295Z,23.73
2022-08-14T23:03:26.291Z,23.58
2022-08-14T23:05:54.532Z,23.76
2022-08-14T23:08:57.755Z,23.58
2022-08-14T23:11:09.533Z,23.63
2022-08-14T23:13:38.996Z,23.60
2022-08-14T23:16:06.107Z,23.67
2022-08-14T23:18:32.145Z,23.57
2022-08-14T23:20:58.012Z,23.51
2022-08-14T23:23:23.890Z,23.43
2022-08-14T23:25:59.299Z,23.63
2022-08-14T23:28:56.831Z,23.44
2022-08-14T23:31:34.894Z,23.57
2022-08-14T23:34:07.973Z,23.59
2022-08-14T23:36:37.976Z,23.61
2022-08-14T23:39:19.437Z,23.51
2022-08-14T23:41:52.610Z,23.69
2022-08-14T23:44:22.646Z,23.61
2022-08-14T23:46:52.668Z,23.68
2022-08-14T23:49:27.942Z,23.66
2022-08-14T23:52:56.013Z,23.76
2022-08-14T23:55:01.148Z,23.58
2022-08-14T23:57:28.689Z,23.66
2022-08-14T23:59:56.656Z,23.63
